createdAt,value
2022-08-19T00:01:29.197Z,99.90
2022-08-19T00:03:57.166Z,99.90
2022-08-19T00:06:23.873Z,99.90
2022-08-19T00:08:52.225Z,99.90
2022-08-19T00:11:25.638Z,99.90
2022-08-19T00:13:52.708Z,99.90
2022-08-19T00:16:20.514Z,99.90
2022-08-19T00:18:52.933Z,99.90
2022-08-19T00:21:19.493Z,99.90
2022-08-19T00:23:46.076Z,99.90
2022-08-19T00:26:12.603Z,99.90
2022-08-19T00:28:39.181Z,99.90
2022-08-19T00:31:05.742Z,99.90
2022-08-19T00:33:35.372Z,99.90
2022-08-19T00:36:01.909Z,99.90
2022-08-19T00:38:37.352Z,99.90
2022-08-19T00:41:04.435Z,99.90
2022-08-19T00:43:31.004Z,99.90
2022-08-19T00:45:57.639Z,99.90
2022-08-19T00:48:24.392Z,99.90
2022-08-19T00:50:51.575Z,99.90
2022-08-19T00:53:19.864Z,99.90
2022-08-19T00:55:46.382Z,99.90
2022-08-19T00:58:13.473Z,99.90
2022-08-19T01:00:40.053Z,99.90
2022-08-19T01:03:06.646Z,99.90
2022-08-19T01:05:33.169Z,99.90
2022-08-19T01:07:59.727Z,99.90
2022-08-19T01:10:26.417Z,99.90
2022-08-19T01:12:53.090Z,99.90
2022-08-19T01:15:19.889Z,99.90
2022-08-19T01:17:46.458Z,99.90
2022-08-19T01:20:13.053Z,99.90
2022-08-19T01:22:42.872Z,99.90
2022-08-19T01:25:14.951Z,99.90
2022-08-19T01:27:43.684Z,99.90
2022-08-19T01:44:30.557Z,99.90
2022-08-19T01:46:57.224Z,99.90
2022-08-19T01:49:23.931Z,99.90
2022-08-19T01:51:50.551Z,99.90
2022-08-19T01:54:27.012Z,99.90
2022-08-19T01:56:54.535Z,99.90
2022-08-19T01:59:21.456Z,99.90
2022-08-19T02:01:48.043Z,99.90
2022-08-19T02:04:15.441Z,99.90
2022-08-19T02:06:42.111Z,99.90
2022-08-19T02:09:09.153Z,99.90
2022-08-19T02:11:36.259Z,99.90
2022-08-19T02:14:03.054Z,99.90
2022-08-19T02:16:29.577Z,99.90
2022-08-19T02:18:56.145Z,99.90
2022-08-19T02:21:22.755Z,99.90
2022-08-19T02:23:49.323Z,99.90
2022-08-19T02:26:15.885Z,99.90
2022-08-19T02:28:42.451Z,99.90
2022-08-19T02:31:09.382Z,99.90
2022-08-19T02:33:36.009Z,99.90
2022-08-19T02:36:02.603Z,99.90
2022-08-19T02:38:29.411Z,99.90
2022-08-19T02:40:59.118Z,99.90
2022-08-19T02:43:26.624Z,99.90
2022-08-19T02:45:53.160Z,99.90
2022-08-19T02:48:21.899Z,99.90
2022-08-19T02:50:51.959Z,99.90
2022-08-19T02:53:20.464Z,99.90
2022-08-19T02:55:47.095Z,99.90
2022-08-19T02:58:13.723Z,99.90
2022-08-19T03:00:42.239Z,99.90
2022-08-19T03:03:08.888Z,99.90
2022-08-19T03:05:46.987Z,99.90
2022-08-19T03:08:21.980Z,99.90
2022-08-19T03:10:49.405Z,99.90
2022-08-19T03:13:16.349Z,99.90
2022-08-19T03:15:42.914Z,99.90
2022-08-19T03:18:09.579Z,99.90
2022-08-19T03:20:36.429Z,99.90
2022-08-19T03:23:03.006Z,99.90
2022-08-19T03:25:29.556Z,99.90
2022-08-19T03:27:56.129Z,99.90
2022-08-19T03:30:23.307Z,99.90
2022-08-19T03:32:51.438Z,99.90
2022-08-19T03:35:23.629Z,99.90
2022-08-19T03:37:50.165Z,99.90
2022-08-19T03:40:16.785Z,99.90
2022-08-19T03:42:49.257Z,99.90
2022-08-19T03:45:16.040Z,99.90
2022-08-19T03:47:42.656Z,99.90
2022-08-19T03:50:09.981Z,99.90
2022-08-19T03:52:36.861Z,99.90
2022-08-19T03:55:03.432Z,99.90
2022-08-19T03:57:32.016Z,99.90
2022-08-19T04:00:04.139Z,99.90
2022-08-19T04:02:40.386Z,99.90
2022-08-19T04:05:09.059Z,99.90
2022-08-19T04:07:35.672Z,99.90
2022-08-19T04:10:02.246Z,99.90
2022-08-19T04:12:28.792Z,99.90
2022-08-19T04:14:55.342Z,99.90
2022-08-19T04:17:23.321Z,99.90
2022-08-19T04:19:49.918Z,99.90
2022-08-19T04:22:16.488Z,99.90
2022-08-19T04:24:43.042Z,99.90
2022-08-19T04:27:09.646Z,99.90
2022-08-19T04:29:36.234Z,99.90
2022-08-19T04:32:09.050Z,99.90
2022-08-19T04:34:36.313Z,99.90
2022-08-19T04:37:22.858Z,99.90
2022-08-19T04:40:08.117Z,99.90
2022-08-19T04:42:40.663Z,99.90
2022-08-19T04:45:09.424Z,99.90
2022-08-19T04:47:47.470Z,99.90
2022-08-19T04:50:23.496Z,99.90
2022-08-19T04:52:50.034Z,99.90
2022-08-19T04:55:16.587Z,99.90
2022-08-19T04:57:43.130Z,99.90
2022-08-19T05:00:09.699Z,99.90
2022-08-19T05:02:36.385Z,99.90
2022-08-19T05:05:03.605Z,99.90
2022-08-19T05:07:30.399Z,99.90
2022-08-19T05:09:58.819Z,99.90
2022-08-19T05:12:28.927Z,99.90
2022-08-19T05:14:57.585Z,99.90
2022-08-19T05:17:27.522Z,99.90
2022-08-19T05:20:14.329Z,99.90
2022-08-19T05:22:40.877Z,99.90
2022-08-19T05:25:12.938Z,99.90
2022-08-19T05:27:43.390Z,99.90
2022-08-19T05:30:10.030Z,99.90
2022-08-19T05:32:36.635Z,99.90
2022-08-19T05:35:03.199Z,99.90
2022-08-19T05:37:30.069Z,99.90
2022-08-19T05:39:59.043Z,99.90
2022-08-19T05:42:26.669Z,99.90
2022-08-19T05:44:53.409Z,99.90
2022-08-19T05:47:20.993Z,99.90
2022-08-19T05:49:48.035Z,99.90
2022-08-19T05:52:16.387Z,99.90
2022-08-19T05:54:46.289Z,99.90
2022-08-19T05:57:14.562Z,99.90
2022-08-19T05:59:41.121Z,99.90
2022-08-19T06:02:07.833Z,99.90
2022-08-19T06:04:34.417Z,99.90
2022-08-19T06:07:12.549Z,99.90
2022-08-19T06:09:39.563Z,99.90
2022-08-19T06:12:06.283Z,99.90
2022-08-19T06:14:33.469Z,99.90
2022-08-19T06:17:06.863Z,99.90
2022-08-19T06:19:34.051Z,99.90
2022-08-19T06:22:00.699Z,99.90
2022-08-19T06:24:28.832Z,99.90
2022-08-19T06:26:59.219Z,99.90
2022-08-19T06:29:28.365Z,99.90
2022-08-19T06:31:55.316Z,99.90
2022-08-19T06:34:21.931Z,99.90
2022-08-19T06:36:48.469Z,99.90
2022-08-19T06:39:15.038Z,99.90
2022-08-19T06:41:47.203Z,99.90
2022-08-19T06:44:17.293Z,99.90
2022-08-19T06:46:45.986Z,99.90
2022-08-19T06:49:21.293Z,99.90
2022-08-19T06:51:48.624Z,99.90
2022-08-19T06:54:19.298Z,99.90
2022-08-19T06:56:46.716Z,99.90
2022-08-19T06:59:13.310Z,99.90
2022-08-19T07:01:40.420Z,99.90
2022-08-19T07:04:07.134Z,99.90
2022-08-19T07:06:43.912Z,99.90
2022-08-19T07:09:11.348Z,99.90
2022-08-19T07:11:38.893Z,99.90
2022-08-19T07:14:07.434Z,99.90
2022-08-19T07:16:49.064Z,99.90
2022-08-19T07:19:16.162Z,99.90
2022-08-19T07:21:45.338Z,99.90
2022-08-19T07:24:13.145Z,99.90
2022-08-19T07:26:39.818Z,99.90
2022-08-19T07:29:08.771Z,99.90
2022-08-19T07:31:37.762Z,99.90
2022-08-19T07:34:04.623Z,99.90
2022-08-19T07:36:33.147Z,99.90
2022-08-19T07:38:59.697Z,99.90
2022-08-19T07:41:26.328Z,99.90
2022-08-19T07:43:52.903Z,99.90
2022-08-19T07:46:21.334Z,99.90
2022-08-19T07:48:47.873Z,99.90
2022-08-19T07:51:14.446Z,99.90
2022-08-19T07:53:56.115Z,99.90
2022-08-19T07:56:22.759Z,99.90
2022-08-19T07:58:49.445Z,99.90
2022-08-19T08:01:16.490Z,99.90
2022-08-19T08:04:01.882Z,99.90
2022-08-19T08:06:47.216Z,99.90
2022-08-19T08:09:16.831Z,99.90
2022-08-19T08:11:43.383Z,99.90
2022-08-19T08:14:28.993Z,99.90
2022-08-19T08:16:56.340Z,99.90
2022-08-19T08:19:26.027Z,99.90
2022-08-19T08:21:52.628Z,99.90
2022-08-19T08:24:19.243Z,99.90
2022-08-19T08:26:52.024Z,99.90
2022-08-19T08:29:20.249Z,99.90
2022-08-19T08:31:46.995Z,99.90
2022-08-19T08:34:25.115Z,99.90
2022-08-19T08:36:53.073Z,99.90
2022-08-19T08:39:19.659Z,99.90
2022-08-19T08:41:46.213Z,99.90
2022-08-19T08:44:17.160Z,99.90
2022-08-19T08:46:43.936Z,99.90
2022-08-19T08:49:10.587Z,99.90
2022-08-19T08:51:38.134Z,99.90
2022-08-19T08:54:04.786Z,99.90
2022-08-19T08:59:03.185Z,99.90
2022-08-19T09:01:30.777Z,99.90
2022-08-19T09:03:57.628Z,99.90
2022-08-19T09:06:29.697Z,99.90
2022-08-19T09:08:56.721Z,99.90
2022-08-19T09:11:42.077Z,99.90
2022-08-19T09:14:23.579Z,99.90
2022-08-19T09:16:56.704Z,99.90
2022-08-19T09:19:23.247Z,99.90
2022-08-19T09:21:51.311Z,99.90
2022-08-19T09:24:18.202Z,99.90
2022-08-19T09:26:52.304Z,99.90
2022-08-19T09:29:19.589Z,99.90
2022-08-19T09:31:49.164Z,99.80
2022-08-19T09:34:21.664Z,99.90
2022-08-19T09:36:55.894Z,99.90
2022-08-19T09:39:22.451Z,99.50
2022-08-19T09:41:50.727Z,97.90
2022-08-19T09:44:24.143Z,96.60
2022-08-19T09:46:53.583Z,97.60
2022-08-19T09:49:20.696Z,97.10
2022-08-19T09:51:51.177Z,97.00
2022-08-19T09:54:25.202Z,95.90
2022-08-19T09:56:52.057Z,96.30
2022-08-19T09:59:18.953Z,96.10
2022-08-19T10:01:45.643Z,96.70
2022-08-19T10:04:20.255Z,97.00
2022-08-19T10:06:51.853Z,96.80
2022-08-19T10:09:33.835Z,96.60
2022-08-19T10:12:02.539Z,96.50
2022-08-19T10:14:29.971Z,94.40
2022-08-19T10:16:59.122Z,94.80
2022-08-19T10:19:26.461Z,94.60
2022-08-19T10:21:53.209Z,94.30
2022-08-19T10:24:21.906Z,94.60
2022-08-19T10:26:49.422Z,93.90
2022-08-19T10:29:32.208Z,93.30
2022-08-19T10:32:03.150Z,93.10
2022-08-19T10:34:29.888Z,93.80
2022-08-19T10:37:01.153Z,93.40
2022-08-19T10:39:30.952Z,94.00
2022-08-19T10:41:58.154Z,93.90
2022-08-19T10:44:24.971Z,94.30
2022-08-19T10:46:59.801Z,95.00
2022-08-19T10:49:26.810Z,94.90
2022-08-19T10:52:13.107Z,93.70
2022-08-19T10:55:08.462Z,93.90
2022-08-19T11:00:21.930Z,93.90
2022-08-19T11:02:50.841Z,92.70
2022-08-19T11:05:18.013Z,93.50
2022-08-19T11:07:45.598Z,93.30
2022-08-19T11:10:13.245Z,92.30
2022-08-19T11:12:40.208Z,91.60
2022-08-19T11:15:06.728Z,91.80
2022-08-19T11:17:33.300Z,91.60
2022-08-19T11:20:03.157Z,90.70
2022-08-19T11:22:34.420Z,91.30
2022-08-19T11:25:05.669Z,91.10
2022-08-19T11:27:32.264Z,90.50
2022-08-19T11:29:58.829Z,89.90
2022-08-19T11:32:25.529Z,90.40
2022-08-19T11:34:52.191Z,90.10
2022-08-19T11:37:19.550Z,90.20
2022-08-19T11:39:46.150Z,90.00
2022-08-19T11:42:39.549Z,90.40
2022-08-19T11:45:06.192Z,90.70
2022-08-19T11:47:33.202Z,88.20
2022-08-19T11:50:00.080Z,88.40
2022-08-19T11:52:27.566Z,87.70
2022-08-19T11:54:54.493Z,88.50
2022-08-19T11:57:21.106Z,85.80
2022-08-19T11:59:47.631Z,88.90
2022-08-19T12:02:16.309Z,89.20
2022-08-19T12:04:42.920Z,89.70
2022-08-19T12:07:09.460Z,88.00
2022-08-19T12:09:35.975Z,88.80
2022-08-19T12:12:03.290Z,89.50
2022-08-19T12:14:31.731Z,90.00
2022-08-19T12:16:58.364Z,89.70
2022-08-19T12:19:25.705Z,90.20
2022-08-19T12:21:52.352Z,90.60
2022-08-19T12:24:24.101Z,88.30
2022-08-19T12:26:52.918Z,88.20
2022-08-19T12:29:23.396Z,88.10
2022-08-19T12:31:50.632Z,87.20
2022-08-19T12:34:17.178Z,87.90
2022-08-19T12:36:43.738Z,88.40
2022-08-19T12:39:10.739Z,88.40
2022-08-19T12:41:43.364Z,87.40
2022-08-19T12:44:18.004Z,87.70
2022-08-19T12:46:46.440Z,89.20
2022-08-19T12:49:20.675Z,90.10
2022-08-19T12:51:59.768Z,88.10
2022-08-19T12:54:26.905Z,87.40
2022-08-19T12:56:53.590Z,85.30
2022-08-19T12:59:20.168Z,83.90
2022-08-19T13:01:46.724Z,84.80
2022-08-19T13:04:13.341Z,83.60
2022-08-19T13:06:39.970Z,83.70
2022-08-19T13:09:06.487Z,82.60
2022-08-19T13:11:36.043Z,81.50
2022-08-19T13:14:02.611Z,82.30
2022-08-19T13:16:29.212Z,81.60
2022-08-19T13:18:55.815Z,82.30
2022-08-19T13:21:23.169Z,83.10
2022-08-19T13:23:49.897Z,85.10
2022-08-19T13:26:16.475Z,84.70
2022-08-19T13:29:01.917Z,84.20
2022-08-19T13:31:47.083Z,84.50
2022-08-19T13:34:13.641Z,85.50
2022-08-19T13:36:40.314Z,84.60
2022-08-19T13:39:06.951Z,84.10
2022-08-19T13:41:34.652Z,83.50
2022-08-19T13:44:01.173Z,83.90
2022-08-19T13:46:28.219Z,83.20
2022-08-19T13:48:54.983Z,82.20
2022-08-19T13:51:21.676Z,82.40
2022-08-19T13:53:48.325Z,82.70
2022-08-19T13:56:14.911Z,81.90
2022-08-19T13:58:41.454Z,81.10
2022-08-19T14:01:08.073Z,80.30
2022-08-19T14:03:34.736Z,79.70
2022-08-19T14:06:01.329Z,79.80
2022-08-19T14:08:29.034Z,79.30
2022-08-19T14:10:55.604Z,79.90
2022-08-19T14:13:22.143Z,80.10
2022-08-19T14:15:48.720Z,80.50
2022-08-19T14:18:15.291Z,82.30
2022-08-19T14:20:43.150Z,80.40
2022-08-19T14:23:09.968Z,79.80
2022-08-19T14:25:36.529Z,80.30
2022-08-19T14:28:03.108Z,79.60
2022-08-19T14:30:29.792Z,81.40
2022-08-19T14:32:56.294Z,79.50
2022-08-19T14:35:22.818Z,80.10
2022-08-19T14:37:49.334Z,79.60
2022-08-19T14:40:16.333Z,80.50
2022-08-19T14:42:42.953Z,78.70
2022-08-19T14:45:09.545Z,79.40
2022-08-19T14:47:36.083Z,78.70
2022-08-19T14:50:07.373Z,78.90
2022-08-19T14:52:37.191Z,79.30
2022-08-19T14:55:03.733Z,79.80
2022-08-19T14:57:34.264Z,78.90
2022-08-19T15:00:00.992Z,79.50
2022-08-19T15:02:34.606Z,77.80
2022-08-19T15:05:02.521Z,79.00
2022-08-19T15:07:30.083Z,77.70
2022-08-19T15:09:56.773Z,76.50
2022-08-19T15:12:23.453Z,77.20
2022-08-19T15:14:55.845Z,78.10
2022-08-19T15:17:43.323Z,79.30
2022-08-19T15:20:10.131Z,78.70
2022-08-19T15:22:36.656Z,78.00
2022-08-19T15:25:03.205Z,77.30
2022-08-19T15:27:30.591Z,78.50
2022-08-19T15:30:01.624Z,76.50
2022-08-19T15:32:28.914Z,77.70
2022-08-19T15:34:55.457Z,77.70
2022-08-19T15:37:25.266Z,77.30
2022-08-19T15:39:52.044Z,76.50
2022-08-19T15:42:28.139Z,77.60
2022-08-19T15:45:00.519Z,77.60
2022-08-19T15:47:28.088Z,76.70
2022-08-19T15:50:01.102Z,76.40
2022-08-19T15:52:27.887Z,77.00
2022-08-19T15:54:54.423Z,75.90
2022-08-19T15:57:27.043Z,77.50
2022-08-19T16:00:12.520Z,77.20
2022-08-19T16:02:57.874Z,77.20
2022-08-19T16:05:44.528Z,77.70
2022-08-19T16:08:11.092Z,78.40
2022-08-19T16:10:38.282Z,78.40
2022-08-19T16:13:05.952Z,78.10
2022-08-19T16:15:33.656Z,79.10
2022-08-19T16:18:04.219Z,78.90
2022-08-19T16:20:30.827Z,79.10
2022-08-19T16:22:58.277Z,79.70
2022-08-19T16:25:27.607Z,79.70
2022-08-19T16:28:06.149Z,80.10
2022-08-19T16:30:33.555Z,80.20
2022-08-19T16:33:00.063Z,80.80
2022-08-19T16:35:26.625Z,81.70
2022-08-19T16:37:53.547Z,81.20
2022-08-19T16:40:20.344Z,80.90
2022-08-19T16:42:46.934Z,81.20
2022-08-19T16:45:13.479Z,81.10
2022-08-19T16:47:40.709Z,82.20
2022-08-19T16:50:07.619Z,82.80
2022-08-19T16:52:34.836Z,81.60
2022-08-19T16:55:01.466Z,81.00
2022-08-19T16:57:28.033Z,81.80
2022-08-19T16:59:54.648Z,80.90
2022-08-19T17:02:22.356Z,81.10
2022-08-19T17:04:58.402Z,81.50
2022-08-19T17:07:25.736Z,81.70
2022-08-19T17:09:52.341Z,82.00
2022-08-19T17:12:18.903Z,81.80
2022-08-19T17:14:45.993Z,82.20
2022-08-19T17:17:12.760Z,81.00
2022-08-19T17:19:41.584Z,81.30
2022-08-19T17:22:08.203Z,80.80
2022-08-19T17:24:38.042Z,82.10
2022-08-19T17:27:07.227Z,81.60
2022-08-19T17:29:33.891Z,80.80
2022-08-19T17:32:00.488Z,80.60
2022-08-19T17:34:28.107Z,79.40
2022-08-19T17:36:56.796Z,79.40
2022-08-19T17:39:23.367Z,78.70
2022-08-19T17:41:49.959Z,78.20
2022-08-19T17:44:17.312Z,78.10
2022-08-19T17:46:46.505Z,77.90
2022-08-19T17:49:13.108Z,78.70
2022-08-19T17:51:40.209Z,79.30
2022-08-19T17:54:06.794Z,79.90
2022-08-19T17:56:33.411Z,79.80
2022-08-19T17:59:01.663Z,80.70
2022-08-19T18:01:33.484Z,80.80
2022-08-19T18:04:15.106Z,81.80
2022-08-19T18:06:41.682Z,81.90
2022-08-19T18:09:16.959Z,82.40
2022-08-19T18:11:44.665Z,82.50
2022-08-19T18:14:13.164Z,82.90
2022-08-19T18:16:40.255Z,83.10
2022-08-19T18:19:07.353Z,83.50
2022-08-19T18:21:35.948Z,84.10
2022-08-19T18:24:02.571Z,84.40
2022-08-19T18:26:30.263Z,85.00
2022-08-19T18:28:57.320Z,85.30
2022-08-19T18:31:23.982Z,85.70
2022-08-19T18:33:52.505Z,85.90
2022-08-19T18:36:37.409Z,86.20
2022-08-19T18:39:35.364Z,86.60
2022-08-19T18:42:23.169Z,87.10
2022-08-19T18:45:08.702Z,87.00
2022-08-19T18:47:54.201Z,87.50
2022-08-19T18:50:23.894Z,87.30
2022-08-19T18:52:50.428Z,87.40
2022-08-19T18:55:18.129Z,87.40
2022-08-19T18:57:44.802Z,87.20
2022-08-19T19:00:12.558Z,87.70
2022-08-19T19:02:39.996Z,87.60
2022-08-19T19:05:07.631Z,87.20
2022-08-19T19:07:34.499Z,86.90
2022-08-19T19:10:01.108Z,87.50
2022-08-19T19:12:30.658Z,86.80
2022-08-19T19:14:58.645Z,87.00
2022-08-19T19:17:28.386Z,86.80
2022-08-19T19:19:54.948Z,86.70
2022-08-19T19:22:21.517Z,86.70
2022-08-19T19:24:48.196Z,86.90
2022-08-19T19:27:15.039Z,86.80
2022-08-19T19:29:41.650Z,86.80
2022-08-19T19:32:08.224Z,86.80
2022-08-19T19:34:34.817Z,86.80
2022-08-19T19:37:01.450Z,87.50
2022-08-19T19:39:45.106Z,87.40
2022-08-19T19:42:20.564Z,87.20
2022-08-19T19:44:48.928Z,87.50
2022-08-19T19:47:16.005Z,87.70
2022-08-19T19:50:03.829Z,87.60
2022-08-19T19:52:29.559Z,88.10
2022-08-19T19:54:57.107Z,88.30
2022-08-19T19:57:23.817Z,88.40
2022-08-19T19:59:51.415Z,88.80
2022-08-19T20:02:18.386Z,88.90
2022-08-19T20:04:45.406Z,89.20
2022-08-19T20:07:12.005Z,89.50
2022-08-19T20:09:58.339Z,88.90
2022-08-19T20:12:25.107Z,89.20
2022-08-19T20:14:51.676Z,89.40
2022-08-19T20:17:20.551Z,89.30
2022-08-19T20:19:47.841Z,89.10
2022-08-19T20:22:14.910Z,89.00
2022-08-19T20:24:42.623Z,89.50
2022-08-19T20:27:09.312Z,89.50
2022-08-19T20:29:39.585Z,89.20
2022-08-19T20:32:07.117Z,89.60
2022-08-19T20:34:33.798Z,89.90
2022-08-19T20:37:00.390Z,90.20
2022-08-19T20:39:26.983Z,90.20
2022-08-19T20:41:53.597Z,90.40
2022-08-19T20:44:20.180Z,90.40
2022-08-19T20:46:54.812Z,90.40
2022-08-19T20:49:22.969Z,90.60
2022-08-19T20:51:54.446Z,90.70
2022-08-19T20:54:21.076Z,90.80
2022-08-19T20:56:47.741Z,90.90
2022-08-19T20:59:14.442Z,90.90
2022-08-19T21:01:40.967Z,91.00
2022-08-19T21:04:07.672Z,91.10
2022-08-19T21:06:34.236Z,91.20
2022-08-19T21:09:00.813Z,91.50
2022-08-19T21:11:27.414Z,91.50
2022-08-19T21:13:54.054Z,91.60
2022-08-19T21:16:20.814Z,91.80
2022-08-19T21:18:48.208Z,91.80
2022-08-19T21:21:15.800Z,91.90
2022-08-19T21:23:42.602Z,92.20
2022-08-19T21:26:09.626Z,92.30
2022-08-19T21:28:36.730Z,92.50
2022-08-19T21:31:03.860Z,92.80
2022-08-19T21:33:32.110Z,93.10
2022-08-19T21:35:59.206Z,92.90
2022-08-19T21:38:25.800Z,93.10
2022-08-19T21:40:52.473Z,93.10
2022-08-19T21:43:19.055Z,93.10
2022-08-19T21:45:45.634Z,93.40
2022-08-19T21:48:14.333Z,93.60
2022-08-19T21:50:40.938Z,93.70
2022-08-19T21:53:07.808Z,93.80
2022-08-19T21:55:37.871Z,94.10
2022-08-19T21:58:04.502Z,94.60
2022-08-19T22:00:32.218Z,94.90
2022-08-19T22:02:58.966Z,95.30
2022-08-19T22:05:25.634Z,95.40
2022-08-19T22:07:52.244Z,95.60
2022-08-19T22:10:18.989Z,95.90
2022-08-19T22:12:51.345Z,96.00
2022-08-19T22:15:18.878Z,96.70
2022-08-19T22:17:45.428Z,96.90
2022-08-19T22:20:12.011Z,97.20
2022-08-19T22:22:38.535Z,97.30
2022-08-19T22:25:05.545Z,97.30
2022-08-19T22:27:32.139Z,97.40
2022-08-19T22:29:58.711Z,97.50
2022-08-19T22:32:28.633Z,97.50
2022-08-19T22:34:56.345Z,97.50
2022-08-19T22:37:22.932Z,98.10
2022-08-19T22:39:49.677Z,98.50
2022-08-19T22:42:16.361Z,98.60
2022-08-19T22:44:43.074Z,98.50
2022-08-19T22:47:10.010Z,98.60
2022-08-19T22:49:36.572Z,98.80
2022-08-19T22:52:17.644Z,98.80
2022-08-19T22:54:45.050Z,98.90
2022-08-19T22:57:11.591Z,98.90
2022-08-19T22:59:38.112Z,99.00
2022-08-19T23:02:04.674Z,99.20
2022-08-19T23:04:31.212Z,99.20
2022-08-19T23:06:57.779Z,99.30
2022-08-19T23:09:24.340Z,99.40
2022-08-19T23:11:50.942Z,99.00
2022-08-19T23:14:18.808Z,98.50
2022-08-19T23:16:50.391Z,98.10
2022-08-19T23:19:17.937Z,97.80
2022-08-19T23:21:44.505Z,97.70
2022-08-19T23:24:11.035Z,97.90
2022-08-19T23:26:37.593Z,99.10
2022-08-19T23:29:22.920Z,99.90
2022-08-19T23:31:49.846Z,99.90
2022-08-19T23:34:17.143Z,99.90
2022-08-19T23:36:43.691Z,99.90
2022-08-19T23:39:10.234Z,99.90
2022-08-19T23:41:36.799Z,99.90
2022-08-19T23:44:03.381Z,99.90
2022-08-19T23:46:30.981Z,99.90
2022-08-19T23:49:08.809Z,99.90
2022-08-19T23:51:35.520Z,99.90
2022-08-19T23:54:02.052Z,99.90
2022-08-19T23:56:28.622Z,99.90
2022-08-19T23:58:55.255Z,99.90
